createdAt,value
2016-11-11T00:01:26.683Z,38
2016-11-11T00:03:26.797Z,38
2016-11-11T00:05:26.747Z,38
2016-11-11T00:07:29.361Z,38
2016-11-11T00:09:29.367Z,38
2016-11-11T00:11:29.476Z,38
2016-11-11T00:13:29.491Z,38
2016-11-11T00:15:27.050Z,38
2016-11-11T00:17:29.584Z,38
2016-11-11T00:19:29.699Z,38
2016-11-11T00:21:27.042Z,38
2016-11-11T00:23:27.259Z,38
2016-11-11T00:25:27.176Z,38
2016-11-11T00:27:27.246Z,38
2016-11-11T00:29:27.435Z,38
2016-11-11T00:31:30.065Z,38
2016-11-11T00:33:30.023Z,38
2016-11-11T00:35:27.478Z,38
2016-11-11T00:37:27.553Z,38
2016-11-11T00:39:30.180Z,38
2016-11-11T00:41:27.823Z,38
2016-11-11T00:43:27.664Z,38
2016-11-11T00:45:27.736Z,38
2016-11-11T00:47:27.874Z,38
2016-11-11T00:49:27.845Z,38
2016-11-11T00:51:28.014Z,38
2016-11-11T00:53:28.100Z,38
2016-11-11T00:55:30.708Z,38
2016-11-11T00:57:30.782Z,38
2016-11-11T00:59:28.276Z,38
2016-11-11T01:01:28.341Z,38
2016-11-11T01:03:30.873Z,38
2016-11-11T01:05:30.998Z,38
2016-11-11T01:07:28.543Z,38
2016-11-11T01:09:31.051Z,38
2016-11-11T01:11:28.539Z,38
2016-11-11T01:13:30.987Z,38
2016-11-11T01:15:31.038Z,38
2016-11-11T01:17:31.121Z,38
2016-11-11T01:19:31.155Z,38
2016-11-11T01:21:28.717Z,38
2016-11-11T01:23:31.341Z,38
2016-11-11T01:25:28.757Z,38
2016-11-11T01:27:31.400Z,38
2016-11-11T01:29:28.891Z,38
2016-11-11T01:31:28.957Z,38
2016-11-11T01:33:29.130Z,38
2016-11-11T01:35:31.755Z,38
2016-11-11T01:37:31.807Z,38
2016-11-11T01:39:31.759Z,38
2016-11-11T01:41:31.880Z,38
2016-11-11T01:43:29.385Z,38
2016-11-11T01:45:31.907Z,38
2016-11-11T01:47:29.515Z,38
2016-11-11T01:49:29.618Z,38
2016-11-11T01:51:29.489Z,38
2016-11-11T01:53:32.165Z,38
2016-11-11T01:55:32.285Z,38
2016-11-11T01:57:32.221Z,38
2016-11-11T01:59:29.812Z,38
2016-11-11T02:01:32.326Z,38
2016-11-11T02:03:29.719Z,38
2016-11-11T02:05:29.791Z,38
2016-11-11T02:07:32.421Z,38
2016-11-11T02:09:29.993Z,38
2016-11-11T02:11:32.543Z,38
2016-11-11T02:13:30.276Z,38
2016-11-11T02:15:32.598Z,38
2016-11-11T02:17:30.202Z,38
2016-11-11T02:19:30.167Z,38
2016-11-11T02:21:30.223Z,38
2016-11-11T02:23:30.349Z,38
2016-11-11T02:25:30.424Z,38
2016-11-11T02:27:33.036Z,38
2016-11-11T02:29:30.535Z,38
2016-11-11T02:31:33.138Z,38
2016-11-11T02:33:30.517Z,38
2016-11-11T02:35:30.629Z,38
2016-11-11T02:37:33.233Z,38
2016-11-11T02:39:33.246Z,38
2016-11-11T02:41:33.207Z,38
2016-11-11T02:43:30.798Z,38
2016-11-11T02:45:30.875Z,38
2016-11-11T02:47:33.418Z,38
2016-11-11T02:49:33.565Z,38
2016-11-11T02:51:31.117Z,38
2016-11-11T02:53:33.786Z,38
2016-11-11T02:55:31.245Z,38
2016-11-11T02:57:33.925Z,38
2016-11-11T02:59:31.326Z,38
2016-11-11T03:01:31.511Z,38
2016-11-11T03:03:31.624Z,38
2016-11-11T03:05:31.520Z,38
2016-11-11T03:07:34.035Z,38
2016-11-11T03:09:31.642Z,38
2016-11-11T03:11:31.658Z,38
2016-11-11T03:13:34.313Z,38
2016-11-11T03:15:31.731Z,38
2016-11-11T03:17:32.118Z,38
2016-11-11T03:19:34.477Z,38
2016-11-11T03:21:34.768Z,38
2016-11-11T03:23:32.098Z,38
2016-11-11T03:25:34.699Z,38
2016-11-11T03:27:35.388Z,38
2016-11-11T03:29:33.666Z,38
2016-11-11T03:31:32.598Z,38
2016-11-11T03:33:32.345Z,38
2016-11-11T03:35:34.978Z,38
2016-11-11T03:37:35.020Z,38
2016-11-11T03:39:34.985Z,38
2016-11-11T03:41:35.123Z,38
2016-11-11T03:43:35.086Z,38
2016-11-11T03:45:32.676Z,38
2016-11-11T03:47:32.692Z,38
2016-11-11T03:49:32.757Z,38
2016-11-11T03:51:35.295Z,38
2016-11-11T03:53:32.829Z,38
2016-11-11T03:55:35.407Z,38
2016-11-11T03:57:32.920Z,38
2016-11-11T03:59:33.027Z,38
2016-11-11T04:01:33.004Z,38
2016-11-11T04:03:33.026Z,38
2016-11-11T04:05:33.151Z,38
2016-11-11T04:07:33.175Z,38
2016-11-11T04:09:35.738Z,38
2016-11-11T04:11:33.319Z,38
2016-11-11T04:13:33.346Z,38
2016-11-11T04:15:33.465Z,38
2016-11-11T04:17:33.493Z,38
2016-11-11T04:19:33.606Z,38
2016-11-11T04:21:36.244Z,38
2016-11-11T04:23:36.212Z,38
2016-11-11T04:25:36.368Z,38
2016-11-11T04:27:36.328Z,38
2016-11-11T04:29:36.444Z,38
2016-11-11T04:31:33.958Z,38
2016-11-11T04:33:36.532Z,38
2016-11-11T04:35:36.387Z,38
2016-11-11T04:37:36.489Z,38
2016-11-11T04:39:36.416Z,38
2016-11-11T04:41:36.533Z,38
2016-11-11T04:43:33.916Z,38
2016-11-11T04:45:36.643Z,38
2016-11-11T04:47:34.031Z,38
2016-11-11T04:49:36.742Z,38
2016-11-11T04:51:34.118Z,38
2016-11-11T04:53:34.326Z,38
2016-11-11T04:55:36.838Z,38
2016-11-11T04:57:34.434Z,38
2016-11-11T04:59:34.421Z,38
2016-11-11T05:01:34.489Z,39
2016-11-11T05:03:37.089Z,40
2016-11-11T05:05:37.145Z,40
2016-11-11T05:07:37.090Z,41
2016-11-11T05:09:34.587Z,41
2016-11-11T05:11:37.257Z,42
2016-11-11T05:13:34.740Z,42
2016-11-11T05:15:34.865Z,43
2016-11-11T05:17:34.859Z,43
2016-11-11T05:19:37.492Z,43
2016-11-11T05:21:37.594Z,43
2016-11-11T05:23:37.749Z,43
2016-11-11T05:25:37.723Z,43
2016-11-11T05:27:37.810Z,43
2016-11-11T05:29:35.242Z,43
2016-11-11T05:31:35.267Z,43
2016-11-11T05:33:37.937Z,43
2016-11-11T05:35:35.387Z,43
2016-11-11T05:37:35.412Z,43
2016-11-11T05:39:35.632Z,43
2016-11-11T05:41:35.569Z,42
2016-11-11T05:43:38.168Z,42
2016-11-11T05:45:38.371Z,41
2016-11-11T05:47:38.461Z,41
2016-11-11T05:49:38.444Z,40
2016-11-11T05:51:38.535Z,40
2016-11-11T05:53:36.024Z,40
2016-11-11T05:55:38.544Z,40
2016-11-11T05:57:35.899Z,40
2016-11-11T05:59:38.614Z,40
2016-11-11T06:01:36.001Z,40
2016-11-11T06:03:36.075Z,40
2016-11-11T06:05:36.259Z,40
2016-11-11T06:07:36.192Z,40
2016-11-11T06:09:38.870Z,40
2016-11-11T06:11:38.824Z,40
2016-11-11T06:13:38.990Z,40
2016-11-11T06:15:38.920Z,40
2016-11-11T06:17:39.033Z,40
2016-11-11T06:19:40.305Z,39
2016-11-11T06:21:36.467Z,39
2016-11-11T06:23:39.091Z,39
2016-11-11T06:25:39.170Z,39
2016-11-11T06:27:39.404Z,39
2016-11-11T06:29:36.738Z,39
2016-11-11T06:31:36.852Z,39
2016-11-11T06:33:37.026Z,39
2016-11-11T06:35:37.545Z,39
2016-11-11T06:37:39.603Z,39
2016-11-11T06:39:39.679Z,39
2016-11-11T06:41:39.880Z,39
2016-11-11T06:43:39.774Z,39
2016-11-11T06:45:37.433Z,39
2016-11-11T06:47:37.457Z,39
2016-11-11T06:49:40.583Z,39
2016-11-11T06:51:37.424Z,39
2016-11-11T06:53:40.050Z,39
2016-11-11T06:55:39.540Z,39
2016-11-11T06:57:37.713Z,39
2016-11-11T06:59:40.265Z,39
2016-11-11T07:01:37.806Z,39
2016-11-11T07:03:37.729Z,39
2016-11-11T07:05:37.963Z,39
2016-11-11T07:07:40.345Z,39
2016-11-11T07:09:40.360Z,39
2016-11-11T07:11:40.549Z,39
2016-11-11T07:13:39.950Z,39
2016-11-11T07:15:40.618Z,39
2016-11-11T07:17:38.068Z,39
2016-11-11T07:19:40.703Z,39
2016-11-11T07:21:40.676Z,39
2016-11-11T07:23:38.341Z,39
2016-11-11T07:25:38.397Z,39
2016-11-11T07:27:40.863Z,39
2016-11-11T07:29:41.050Z,39
2016-11-11T07:31:38.599Z,39
2016-11-11T07:33:39.361Z,39
2016-11-11T07:35:41.175Z,39
2016-11-11T07:37:41.278Z,39
2016-11-11T07:39:41.265Z,39
2016-11-11T07:41:41.256Z,39
2016-11-11T07:43:41.391Z,39
2016-11-11T07:45:38.711Z,39
2016-11-11T07:47:41.424Z,39
2016-11-11T07:49:41.493Z,39
2016-11-11T07:51:38.934Z,39
2016-11-11T07:53:39.024Z,39
2016-11-11T07:55:42.331Z,40
2016-11-11T07:57:41.639Z,40
2016-11-11T07:59:41.892Z,40
2016-11-11T08:01:39.428Z,40
2016-11-11T08:03:39.284Z,40
2016-11-11T08:05:39.468Z,40
2016-11-11T08:07:39.390Z,40
2016-11-11T08:09:42.806Z,40
2016-11-11T08:11:42.468Z,40
2016-11-11T08:13:42.143Z,40
2016-11-11T08:15:42.068Z,40
2016-11-11T08:17:39.532Z,40
2016-11-11T08:21:14.487Z,40
2016-11-11T08:23:14.963Z,39
2016-11-11T08:25:11.978Z,39
2016-11-11T08:27:14.551Z,39
2016-11-11T08:29:14.725Z,39
2016-11-11T08:31:15.465Z,39
2016-11-11T08:33:14.812Z,39
2016-11-11T08:35:14.901Z,39
2016-11-11T08:37:14.921Z,39
2016-11-11T08:39:12.299Z,39
2016-11-11T08:41:13.165Z,39
2016-11-11T08:43:15.047Z,39
2016-11-11T08:45:12.637Z,39
2016-11-11T08:47:12.720Z,39
2016-11-11T08:49:15.420Z,39
2016-11-11T08:51:15.341Z,39
2016-11-11T08:53:13.474Z,39
2016-11-11T08:55:15.348Z,39
2016-11-11T08:57:15.427Z,39
2016-11-11T08:59:17.851Z,39
2016-11-11T09:01:17.057Z,39
2016-11-11T09:03:16.290Z,39
2016-11-11T09:05:15.235Z,38
2016-11-11T09:07:17.695Z,37
2016-11-11T09:09:19.877Z,37
2016-11-11T09:11:15.942Z,37
2016-11-11T09:13:15.965Z,37
2016-11-11T09:15:15.923Z,37
2016-11-11T09:17:17.013Z,37
2016-11-11T09:19:16.108Z,37
2016-11-11T09:21:16.182Z,37
2016-11-11T09:23:13.606Z,37
2016-11-11T09:25:16.111Z,36
2016-11-11T09:27:14.775Z,36
2016-11-11T09:29:16.226Z,36
2016-11-11T09:31:16.302Z,36
2016-11-11T09:33:16.454Z,36
2016-11-11T09:35:17.033Z,36
2016-11-11T09:37:17.198Z,36
2016-11-11T09:39:16.482Z,36
2016-11-11T09:41:14.070Z,36
2016-11-11T09:43:14.130Z,36
2016-11-11T09:45:16.811Z,36
2016-11-11T09:47:16.881Z,36
2016-11-11T09:49:14.444Z,36
2016-11-11T09:51:14.524Z,36
2016-11-11T09:53:17.710Z,36
2016-11-11T09:55:19.664Z,36
2016-11-11T09:57:15.419Z,36
2016-11-11T09:59:14.868Z,36
2016-11-11T10:01:17.016Z,36
2016-11-11T10:03:17.519Z,36
2016-11-11T10:05:15.047Z,36
2016-11-11T10:07:15.830Z,36
2016-11-11T10:09:17.539Z,36
2016-11-11T10:11:14.955Z,37
2016-11-11T10:13:18.206Z,37
2016-11-11T10:15:16.711Z,37
2016-11-11T10:17:18.271Z,37
2016-11-11T10:19:15.169Z,37
2016-11-11T10:21:15.058Z,37
2016-11-11T10:23:15.269Z,37
2016-11-11T10:25:16.414Z,37
2016-11-11T10:27:18.803Z,37
2016-11-11T10:29:17.857Z,37
2016-11-11T10:31:16.491Z,37
2016-11-11T10:33:15.299Z,37
2016-11-11T10:35:18.529Z,37
2016-11-11T10:37:17.893Z,37
2016-11-11T10:39:16.068Z,37
2016-11-11T10:41:18.748Z,37
2016-11-11T10:43:20.043Z,37
2016-11-11T10:45:16.161Z,37
2016-11-11T10:47:18.215Z,37
2016-11-11T10:49:15.672Z,37
2016-11-11T10:51:16.248Z,37
2016-11-11T10:53:15.668Z,37
2016-11-11T10:55:18.296Z,37
2016-11-11T10:57:18.360Z,37
2016-11-11T10:59:19.732Z,37
2016-11-11T11:01:18.553Z,37
2016-11-11T11:03:15.935Z,37
2016-11-11T11:05:19.539Z,37
2016-11-11T11:07:19.984Z,37
2016-11-11T11:09:18.593Z,37
2016-11-11T11:11:18.567Z,37
2016-11-11T11:13:18.738Z,37
2016-11-11T11:15:16.365Z,37
2016-11-11T11:17:17.031Z,37
2016-11-11T11:19:16.507Z,37
2016-11-11T11:21:18.092Z,37
2016-11-11T11:23:16.535Z,37
2016-11-11T11:25:18.049Z,37
2016-11-11T11:27:17.263Z,38
2016-11-11T11:29:21.698Z,38
2016-11-11T11:31:17.329Z,38
2016-11-11T11:33:19.365Z,38
2016-11-11T11:35:17.511Z,38
2016-11-11T11:37:19.924Z,38
2016-11-11T11:39:17.500Z,37
2016-11-11T11:41:16.905Z,37
2016-11-11T11:43:19.652Z,37
2016-11-11T11:45:21.593Z,37
2016-11-11T11:47:22.773Z,37
2016-11-11T11:49:19.696Z,37
2016-11-11T11:51:18.965Z,37
2016-11-11T11:53:20.551Z,37
2016-11-11T11:55:21.978Z,37
2016-11-11T11:57:19.402Z,37
2016-11-11T11:59:18.238Z,37
2016-11-11T12:01:21.317Z,37
2016-11-11T12:03:20.219Z,37
2016-11-11T12:05:20.545Z,37
2016-11-11T12:07:20.876Z,37
2016-11-11T12:09:19.442Z,37
2016-11-11T12:11:24.605Z,37
2016-11-11T12:13:17.870Z,37
2016-11-11T12:15:23.855Z,37
2016-11-11T12:17:22.160Z,37
2016-11-11T12:19:18.697Z,37
2016-11-11T12:21:21.099Z,38
2016-11-11T12:23:21.155Z,38
2016-11-11T12:25:18.093Z,38
2016-11-11T12:27:21.318Z,38
2016-11-11T12:29:20.776Z,39
2016-11-11T12:31:21.214Z,39
2016-11-11T12:33:21.863Z,39
2016-11-11T12:35:20.812Z,39
2016-11-11T12:37:20.914Z,39
2016-11-11T12:39:20.824Z,39
2016-11-11T12:41:21.650Z,39
2016-11-11T12:43:19.775Z,39
2016-11-11T12:45:21.067Z,39
2016-11-11T12:47:21.147Z,39
2016-11-11T12:49:22.602Z,39
2016-11-11T12:51:19.513Z,39
2016-11-11T12:53:21.322Z,39
2016-11-11T12:55:21.979Z,39
2016-11-11T12:57:18.963Z,39
2016-11-11T12:59:21.428Z,39
2016-11-11T13:01:20.276Z,39
2016-11-11T13:03:22.877Z,39
2016-11-11T13:05:22.191Z,39
2016-11-11T13:07:21.677Z,39
2016-11-11T13:09:19.099Z,39
2016-11-11T13:11:20.543Z,39
2016-11-11T13:13:21.865Z,40
2016-11-11T13:15:23.902Z,40
2016-11-11T13:17:19.384Z,40
2016-11-11T13:19:22.469Z,40
2016-11-11T13:21:20.692Z,40
2016-11-11T13:23:20.500Z,40
2016-11-11T13:25:23.419Z,40
2016-11-11T13:27:25.854Z,40
2016-11-11T13:29:22.634Z,40
2016-11-11T13:31:22.693Z,40
2016-11-11T13:33:24.272Z,40
2016-11-11T13:35:25.485Z,40
2016-11-11T13:37:22.946Z,40
2016-11-11T13:39:22.748Z,40
2016-11-11T13:41:24.187Z,40
2016-11-11T13:43:23.720Z,40
2016-11-11T13:45:26.013Z,40
2016-11-11T13:47:24.985Z,40
2016-11-11T13:49:24.636Z,40
2016-11-11T13:51:22.862Z,40
2016-11-11T13:53:24.028Z,40
2016-11-11T13:55:24.643Z,40
2016-11-11T13:57:20.331Z,40
2016-11-11T13:59:24.324Z,40
2016-11-11T14:01:24.194Z,40
2016-11-11T14:03:25.482Z,40
2016-11-11T14:05:21.355Z,40
2016-11-11T14:07:23.166Z,40
2016-11-11T14:09:22.734Z,40
2016-11-11T14:11:22.137Z,40
2016-11-11T14:13:25.393Z,41
2016-11-11T14:15:21.519Z,41
2016-11-11T14:17:20.899Z,40
2016-11-11T14:19:23.635Z,40
2016-11-11T14:21:23.571Z,40
2016-11-11T14:23:21.092Z,40
2016-11-11T14:25:23.684Z,40
2016-11-11T14:27:23.817Z,40
2016-11-11T14:29:25.564Z,40
2016-11-11T14:31:21.240Z,40
2016-11-11T14:33:23.801Z,40
2016-11-11T14:35:24.132Z,41
2016-11-11T14:37:22.043Z,41
2016-11-11T14:39:21.430Z,41
2016-11-11T14:41:23.965Z,41
2016-11-11T14:43:21.484Z,41
2016-11-11T14:45:21.586Z,41
2016-11-11T14:47:21.549Z,41
2016-11-11T14:49:21.645Z,41
2016-11-11T14:51:22.174Z,41
2016-11-11T14:53:26.043Z,41
2016-11-11T14:55:24.259Z,41
2016-11-11T14:57:24.288Z,41
2016-11-11T14:59:21.898Z,41
2016-11-11T15:01:21.943Z,41
2016-11-11T15:03:21.845Z,41
2016-11-11T15:05:24.533Z,41
2016-11-11T15:07:21.987Z,41
2016-11-11T15:09:24.544Z,41
2016-11-11T15:11:24.621Z,41
2016-11-11T15:13:22.802Z,41
2016-11-11T15:15:25.292Z,41
2016-11-11T15:17:25.469Z,41
2016-11-11T15:19:25.647Z,41
2016-11-11T15:21:23.032Z,41
2016-11-11T15:23:27.409Z,41
2016-11-11T15:25:26.387Z,41
2016-11-11T15:27:23.291Z,41
2016-11-11T15:29:22.712Z,41
2016-11-11T15:31:24.094Z,41
2016-11-11T15:33:25.367Z,41
2016-11-11T15:35:25.472Z,41
2016-11-11T15:37:26.082Z,41
2016-11-11T15:39:26.103Z,41
2016-11-11T15:41:23.512Z,41
2016-11-11T15:43:25.536Z,41
2016-11-11T15:45:25.105Z,41
2016-11-11T15:47:24.150Z,41
2016-11-11T15:49:25.657Z,41
2016-11-11T15:51:25.759Z,41
2016-11-11T15:53:25.819Z,41
2016-11-11T15:55:25.778Z,41
2016-11-11T15:57:24.524Z,41
2016-11-11T15:59:26.460Z,41
2016-11-11T16:01:26.357Z,41
2016-11-11T16:03:26.634Z,41
2016-11-11T16:05:25.973Z,41
2016-11-11T16:07:23.289Z,41
2016-11-11T16:09:23.391Z,41
2016-11-11T16:11:26.009Z,41
2016-11-11T16:13:23.320Z,41
2016-11-11T16:15:23.420Z,41
2016-11-11T16:17:25.929Z,41
2016-11-11T16:19:26.499Z,41
2016-11-11T16:21:25.984Z,41
2016-11-11T16:23:24.136Z,41
2016-11-11T16:25:26.115Z,41
2016-11-11T16:27:23.746Z,41
2016-11-11T16:29:23.759Z,41
2016-11-11T16:31:23.847Z,41
2016-11-11T16:33:23.751Z,41
2016-11-11T16:35:26.497Z,41
2016-11-11T16:37:26.373Z,41
2016-11-11T16:39:23.855Z,41
2016-11-11T16:41:25.272Z,41
2016-11-11T16:43:24.086Z,41
2016-11-11T16:45:24.751Z,41
2016-11-11T16:47:26.729Z,41
2016-11-11T16:49:26.859Z,41
2016-11-11T16:51:24.303Z,41
2016-11-11T16:53:24.259Z,41
2016-11-11T16:55:26.910Z,41
2016-11-11T16:57:27.038Z,41
2016-11-11T16:59:26.993Z,41
2016-11-11T17:01:27.054Z,41
2016-11-11T17:03:24.573Z,41
2016-11-11T17:05:24.598Z,41
2016-11-11T17:07:24.613Z,41
2016-11-11T17:09:24.538Z,41
2016-11-11T17:11:27.249Z,41
2016-11-11T17:13:24.667Z,41
2016-11-11T17:15:24.678Z,41
2016-11-11T17:17:25.483Z,41
2016-11-11T17:19:24.669Z,41
2016-11-11T17:21:27.386Z,41
2016-11-11T17:23:24.914Z,41
2016-11-11T17:25:27.387Z,41
2016-11-11T17:27:25.017Z,41
2016-11-11T17:29:24.989Z,41
2016-11-11T17:31:24.989Z,41
2016-11-11T17:33:27.745Z,41
2016-11-11T17:35:27.738Z,41
2016-11-11T17:37:26.228Z,41
2016-11-11T17:39:27.810Z,41
2016-11-11T17:41:29.837Z,41
2016-11-11T17:43:25.465Z,41
2016-11-11T17:45:28.667Z,41
2016-11-11T17:47:25.590Z,41
2016-11-11T17:49:28.199Z,41
2016-11-11T17:51:25.721Z,41
2016-11-11T17:53:28.314Z,41
2016-11-11T17:55:25.891Z,41
2016-11-11T17:57:28.449Z,40
2016-11-11T17:59:25.889Z,40
2016-11-11T18:01:28.472Z,40
2016-11-11T18:03:25.976Z,40
2016-11-11T18:05:28.660Z,40
2016-11-11T18:07:26.227Z,40
2016-11-11T18:09:26.154Z,40
2016-11-11T18:11:28.835Z,40
2016-11-11T18:13:28.909Z,40
2016-11-11T18:15:26.346Z,40
2016-11-11T18:17:29.052Z,40
2016-11-11T18:19:29.049Z,40
2016-11-11T18:21:29.136Z,40
2016-11-11T18:23:29.229Z,40
2016-11-11T18:25:26.746Z,40
2016-11-11T18:27:29.229Z,40
2016-11-11T18:29:26.670Z,40
2016-11-11T18:31:26.804Z,40
2016-11-11T18:33:29.410Z,40
2016-11-11T18:35:29.423Z,40
2016-11-11T18:37:29.529Z,40
2016-11-11T18:39:29.720Z,40
2016-11-11T18:41:27.250Z,40
2016-11-11T18:43:27.272Z,40
2016-11-11T18:45:29.742Z,40
2016-11-11T18:47:29.966Z,40
2016-11-11T18:49:29.868Z,40
2016-11-11T18:51:29.954Z,40
2016-11-11T18:53:29.942Z,40
2016-11-11T18:55:30.039Z,40
2016-11-11T18:57:29.928Z,40
2016-11-11T18:59:30.020Z,40
2016-11-11T19:01:30.210Z,40
2016-11-11T19:03:27.774Z,40
2016-11-11T19:05:27.692Z,40
2016-11-11T19:07:27.724Z,40
2016-11-11T19:09:30.305Z,40
2016-11-11T19:11:30.395Z,40
2016-11-11T19:13:27.924Z,40
2016-11-11T19:15:30.516Z,40
2016-11-11T19:17:30.711Z,40
2016-11-11T19:19:30.773Z,40
2016-11-11T19:21:30.830Z,40
2016-11-11T19:23:28.274Z,40
2016-11-11T19:25:30.930Z,40
2016-11-11T19:27:28.387Z,40
2016-11-11T19:29:31.073Z,40
2016-11-11T19:31:31.061Z,40
2016-11-11T19:33:28.693Z,40
2016-11-11T19:35:31.277Z,40
2016-11-11T19:37:28.781Z,40
2016-11-11T19:39:28.706Z,40
2016-11-11T19:41:28.890Z,40
2016-11-11T19:43:28.875Z,40
2016-11-11T19:45:28.922Z,40
2016-11-11T19:47:29.095Z,40
2016-11-11T19:49:29.142Z,40
2016-11-11T19:51:31.710Z,40
2016-11-11T19:53:29.252Z,40
2016-11-11T19:55:31.851Z,40
2016-11-11T19:57:29.319Z,40
2016-11-11T19:59:29.424Z,40
2016-11-11T20:01:32.005Z,40
2016-11-11T20:03:29.855Z,40
2016-11-11T20:05:29.432Z,40
2016-11-11T20:07:29.987Z,40
2016-11-11T20:09:32.137Z,40
2016-11-11T20:11:33.391Z,40
2016-11-11T20:13:30.851Z,40
2016-11-11T20:15:29.778Z,40
2016-11-11T20:17:32.369Z,40
2016-11-11T20:19:32.367Z,40
2016-11-11T20:21:34.430Z,40
2016-11-11T20:23:32.520Z,40
2016-11-11T20:25:37.298Z,40
2016-11-11T20:27:30.007Z,40
2016-11-11T20:29:30.529Z,40
2016-11-11T20:31:30.772Z,40
2016-11-11T20:33:32.200Z,40
2016-11-11T20:35:30.199Z,40
2016-11-11T20:37:32.720Z,40
2016-11-11T20:39:36.002Z,40
2016-11-11T20:41:37.203Z,40
2016-11-11T20:43:30.309Z,40
2016-11-11T20:45:32.907Z,40
2016-11-11T20:47:33.025Z,40
2016-11-11T20:49:36.294Z,40
2016-11-11T20:51:33.183Z,39
2016-11-11T20:53:33.286Z,39
2016-11-11T20:55:30.737Z,39
2016-11-11T20:57:33.216Z,39
2016-11-11T20:59:33.224Z,39
2016-11-11T21:01:33.315Z,39
2016-11-11T21:03:30.855Z,39
2016-11-11T21:05:30.800Z,39
2016-11-11T21:07:30.825Z,39
2016-11-11T21:09:30.885Z,39
2016-11-11T21:11:31.078Z,39
2016-11-11T21:13:31.107Z,40
2016-11-11T21:15:33.566Z,40
2016-11-11T21:17:33.684Z,40
2016-11-11T21:19:31.266Z,40
2016-11-11T21:21:33.860Z,39
2016-11-11T21:23:31.398Z,40
2016-11-11T21:25:31.449Z,40
2016-11-11T21:27:34.015Z,39
2016-11-11T21:29:31.390Z,39
2016-11-11T21:31:31.571Z,39
2016-11-11T21:33:31.608Z,39
2016-11-11T21:35:34.109Z,39
2016-11-11T21:37:34.190Z,39
2016-11-11T21:39:31.717Z,39
2016-11-11T21:41:34.253Z,39
2016-11-11T21:43:31.796Z,39
2016-11-11T21:45:34.280Z,39
2016-11-11T21:47:34.417Z,39
2016-11-11T21:49:31.985Z,39
2016-11-11T21:51:32.024Z,39
2016-11-11T21:53:32.085Z,39
2016-11-11T21:55:34.680Z,39
2016-11-11T21:57:32.236Z,39
2016-11-11T21:59:32.307Z,39
2016-11-11T22:01:32.247Z,39
2016-11-11T22:03:32.349Z,39
2016-11-11T22:05:35.011Z,39
2016-11-11T22:07:35.000Z,39
2016-11-11T22:09:32.444Z,39
2016-11-11T22:11:35.282Z,39
2016-11-11T22:13:32.731Z,39
2016-11-11T22:15:32.712Z,39
2016-11-11T22:17:32.739Z,39
2016-11-11T22:19:33.418Z,39
2016-11-11T22:21:35.513Z,39
2016-11-11T22:23:32.890Z,39
2016-11-11T22:25:32.924Z,39
2016-11-11T22:27:33.057Z,39
2016-11-11T22:29:35.670Z,39
2016-11-11T22:31:35.569Z,39
2016-11-11T22:33:35.689Z,39
2016-11-11T22:35:35.761Z,39
2016-11-11T22:37:33.127Z,39
2016-11-11T22:39:35.731Z,39
2016-11-11T22:41:35.857Z,39
2016-11-11T22:43:33.190Z,39
2016-11-11T22:45:33.318Z,39
2016-11-11T22:47:35.917Z,39
2016-11-11T22:49:35.995Z,39
2016-11-11T22:51:33.455Z,39
2016-11-11T22:53:33.428Z,39
2016-11-11T22:55:36.113Z,39
2016-11-11T22:57:36.205Z,39
2016-11-11T22:59:33.665Z,39
2016-11-11T23:01:36.299Z,39
2016-11-11T23:03:33.890Z,39
2016-11-11T23:05:33.863Z,39
2016-11-11T23:07:36.546Z,39
2016-11-11T23:09:36.562Z,39
2016-11-11T23:11:34.161Z,39
2016-11-11T23:13:34.125Z,39
2016-11-11T23:15:36.703Z,39
2016-11-11T23:17:34.205Z,39
2016-11-11T23:19:36.698Z,39
2016-11-11T23:21:36.717Z,39
2016-11-11T23:23:36.861Z,39
2016-11-11T23:25:34.337Z,39
2016-11-11T23:27:36.881Z,39
2016-11-11T23:29:34.542Z,39
2016-11-11T23:31:37.026Z,39
2016-11-11T23:33:34.543Z,39
2016-11-11T23:35:34.707Z,39
2016-11-11T23:37:37.287Z,39
2016-11-11T23:39:34.865Z,39
2016-11-11T23:41:34.933Z,39
2016-11-11T23:43:37.515Z,39
2016-11-11T23:45:37.524Z,39
2016-11-11T23:47:37.643Z,39
2016-11-11T23:49:37.566Z,39
2016-11-11T23:51:37.601Z,39
2016-11-11T23:53:35.152Z,39
2016-11-11T23:55:37.680Z,39
2016-11-11T23:57:35.148Z,39
2016-11-11T23:59:37.881Z,39
